Time;durP1;ratioP1;P1;durP2;ratioP2;P2;SDS_P1;SDS_P2;PMS_P1;PMS_P2;Temp;Humidity;BMP_temperature;BMP_pressure;BME280_temperature;BME280_humidity;BME280_pressure;Samples;Min_cycle;Max_cycle;Signal;HPM_P1;HPM_P2
2023/01/04 00:01:08;;;;;;;2.80;1.58;;;7.90;99.90;;;;;;5095396;28;20130;-80
2023/01/04 00:03:34;;;;;;;3.20;1.55;;;7.90;99.90;;;;;;5090059;28;20036;-80
2023/01/04 00:06:03;;;;;;;3.05;1.52;;;7.90;99.90;;;;;;5078285;28;20059;-77
2023/01/04 00:08:30;;;;;;;4.60;1.77;;;8.00;99.90;;;;;;5076648;28;20052;-83
2023/01/04 00:11:03;;;;;;;3.10;1.88;;;7.90;99.90;;;;;;5063007;28;20496;-82
2023/01/04 00:13:30;;;;;;;3.72;2.25;;;7.90;99.90;;;;;;5084250;28;20056;-80
2023/01/04 00:15:56;;;;;;;3.63;1.67;;;7.90;99.90;;;;;;5085416;28;20385;-78
2023/01/04 00:18:22;;;;;;;3.78;1.42;;;7.80;99.90;;;;;;5093603;28;20037;-79
2023/01/04 00:20:48;;;;;;;5.30;2.17;;;7.90;99.90;;;;;;5078619;28;20042;-76
2023/01/04 00:23:14;;;;;;;4.00;1.60;;;7.90;99.90;;;;;;5095813;28;20059;-81
2023/01/04 00:25:40;;;;;;;2.58;1.25;;;7.80;99.90;;;;;;5081127;28;20045;-79
2023/01/04 00:28:06;;;;;;;3.17;1.60;;;7.90;99.90;;;;;;5081124;28;20067;-76
2023/01/04 00:30:31;;;;;;;2.25;1.30;;;7.80;99.90;;;;;;5098695;28;20190;-78
2023/01/04 00:32:57;;;;;;;3.38;1.52;;;7.90;99.90;;;;;;5093421;28;20036;-80
2023/01/04 00:35:23;;;;;;;6.22;1.83;;;7.90;99.90;;;;;;5084569;28;20071;-80
2023/01/04 00:37:49;;;;;;;4.43;1.60;;;7.80;99.90;;;;;;5080247;28;20041;-80
2023/01/04 00:40:15;;;;;;;4.88;1.75;;;7.80;99.90;;;;;;5081111;28;20044;-75
2023/01/04 00:42:41;;;;;;;4.50;1.75;;;7.70;99.90;;;;;;5080241;28;20044;-81
2023/01/04 00:45:07;;;;;;;5.07;1.45;;;7.70;99.90;;;;;;5068354;28;20096;-79
2023/01/04 00:47:35;;;;;;;3.13;1.88;;;7.80;99.90;;;;;;5085694;28;20066;-75
2023/01/04 00:50:01;;;;;;;4.00;1.70;;;7.80;99.90;;;;;;5079203;28;20108;-74
2023/01/04 00:52:26;;;;;;;6.72;1.88;;;7.70;99.90;;;;;;5086059;28;20554;-80
2023/01/04 00:54:52;;;;;;;2.97;1.42;;;7.70;99.90;;;;;;5085725;28;20260;-80
2023/01/04 00:57:18;;;;;;;4.72;2.22;;;7.60;99.90;;;;;;5077900;28;20056;-76
2023/01/04 00:59:43;;;;;;;4.65;1.73;;;7.50;99.90;;;;;;5060408;28;20047;-75
2023/01/04 01:02:09;;;;;;;5.13;2.97;;;7.50;99.90;;;;;;5091735;28;20139;-78
2023/01/04 01:04:35;;;;;;;3.78;1.70;;;7.50;99.90;;;;;;5100960;28;20040;-80
2023/01/04 01:07:01;;;;;;;2.95;1.52;;;7.50;99.90;;;;;;5063290;28;20041;-80
2023/01/04 01:09:27;;;;;;;2.75;1.60;;;7.50;99.90;;;;;;5065054;28;20102;-79
2023/01/04 01:11:53;;;;;;;3.67;1.50;;;7.50;99.90;;;;;;5078210;28;20252;-81
2023/01/04 01:14:23;;;;;;;4.43;1.77;;;7.50;99.90;;;;;;5074407;28;20052;-84
2023/01/04 01:16:49;;;;;;;3.50;1.48;;;7.50;99.90;;;;;;5074190;28;20052;-76
2023/01/04 01:19:15;;;;;;;2.28;1.35;;;7.50;99.90;;;;;;5093797;28;20055;-78
2023/01/04 01:21:41;;;;;;;4.80;1.77;;;7.50;99.90;;;;;;5090217;28;20044;-76
2023/01/04 01:24:15;;;;;;;4.10;1.65;;;7.60;99.90;;;;;;5088946;28;20144;-80
2023/01/04 01:26:40;;;;;;;5.82;1.80;;;7.60;99.90;;;;;;5095068;28;20116;-77
2023/01/04 01:29:06;;;;;;;4.57;1.73;;;7.60;99.90;;;;;;5064114;28;20049;-81
2023/01/04 01:31:32;;;;;;;3.35;1.48;;;7.60;99.90;;;;;;5067107;28;20127;-80
2023/01/04 01:33:57;;;;;;;4.78;2.20;;;7.60;99.90;;;;;;5061019;28;20048;-87
2023/01/04 01:36:25;;;;;;;3.67;1.77;;;7.60;99.90;;;;;;5066987;28;20040;-79
2023/01/04 01:38:51;;;;;;;2.95;2.10;;;7.60;99.90;;;;;;5075879;28;20529;-78
2023/01/04 01:41:29;;;;;;;5.00;2.45;;;7.60;99.90;;;;;;5084217;28;20497;-75
2023/01/04 01:44:01;;;;;;;2.90;1.60;;;7.60;99.90;;;;;;5078581;28;20051;-77
2023/01/04 01:46:33;;;;;;;3.22;2.17;;;7.60;99.90;;;;;;5079810;28;20215;-82
2023/01/04 01:49:19;;;;;;;4.63;1.80;;;7.60;99.90;;;;;;5069248;28;20051;-77
2023/01/04 01:51:45;;;;;;;4.73;1.63;;;7.50;99.90;;;;;;5080149;28;20523;-80
2023/01/04 01:54:16;;;;;;;2.92;1.67;;;7.40;99.90;;;;;;5087567;28;20314;-81
2023/01/04 01:56:45;;;;;;;6.18;1.85;;;7.40;99.90;;;;;;5066381;28;20051;-85
2023/01/04 01:59:12;;;;;;;4.43;2.03;;;7.40;99.90;;;;;;5082115;28;20056;-81
2023/01/04 02:01:38;;;;;;;3.92;1.75;;;7.40;99.90;;;;;;5078484;28;20048;-81
2023/01/04 02:04:04;;;;;;;3.10;1.73;;;7.30;99.90;;;;;;5049089;28;20056;-79
2023/01/04 02:06:38;;;;;;;3.67;2.28;;;7.40;99.90;;;;;;5081015;28;20105;-77
2023/01/04 02:09:04;;;;;;;3.55;2.05;;;7.40;99.90;;;;;;5083041;28;20134;-81
2023/01/04 02:11:30;;;;;;;2.95;1.85;;;7.40;99.90;;;;;;5082888;28;20043;-82
2023/01/04 02:17:04;;;;;;;4.38;2.50;;;7.40;99.90;;;;;;5095064;28;20048;-79
2023/01/04 02:19:57;;;;;;;2.50;1.60;;;7.40;99.90;;;;;;5081543;28;20056;-74
2023/01/04 02:22:47;;;;;;;3.80;1.85;;;7.40;99.90;;;;;;5073367;28;20079;-80
2023/01/04 02:25:52;;;;;;;4.55;2.10;;;7.40;99.90;;;;;;5076096;28;20048;-81
2023/01/04 02:28:44;;;;;;;3.60;2.15;;;7.40;99.90;;;;;;5071881;28;20046;-81
2023/01/04 02:31:26;;;;;;;2.97;1.92;;;7.50;99.90;;;;;;5072035;28;20052;-81
2023/01/04 02:34:08;;;;;;;4.03;1.77;;;7.50;99.90;;;;;;5102545;28;20032;-87
2023/01/04 02:36:47;;;;;;;3.53;1.88;;;7.50;99.90;;;;;;5096026;28;20045;-82
2023/01/04 02:39:54;;;;;;;3.08;2.00;;;7.50;99.90;;;;;;5065173;28;20060;-84
2023/01/04 02:45:25;;;;;;;4.50;2.00;;;7.50;99.90;;;;;;5094545;28;20617;-83
2023/01/04 02:50:50;;;;;;;3.95;1.98;;;7.50;99.90;;;;;;5080341;28;20496;-81
2023/01/04 02:53:27;;;;;;;3.60;2.20;;;7.60;99.90;;;;;;5097061;28;20409;-81
2023/01/04 02:56:44;;;;;;;3.00;1.88;;;7.60;99.90;;;;;;5093674;28;20036;-83
2023/01/04 02:59:26;;;;;;;2.80;1.85;;;7.70;99.90;;;;;;5039953;28;20063;-82
2023/01/04 03:08:21;;;;;;;2.17;1.50;;;7.80;99.90;;;;;;5067048;28;20052;-81
2023/01/04 03:10:53;;;;;;;2.97;1.77;;;7.80;99.90;;;;;;5084578;28;20407;-82
2023/01/04 03:13:26;;;;;;;5.00;1.30;;;7.90;99.90;;;;;;5094701;28;20044;-83
2023/01/04 03:16:03;;;;;;;2.80;1.70;;;7.90;99.90;;;;;;5084073;28;20033;-79
2023/01/04 03:18:35;;;;;;;3.47;1.60;;;7.90;99.90;;;;;;5083204;28;20048;-83
2023/01/04 03:21:03;;;;;;;4.05;1.63;;;8.00;99.90;;;;;;5076480;28;20048;-87
2023/01/04 03:35:57;;;;;;;2.90;2.03;;;8.10;99.90;;;;;;5085241;28;20057;-83
2023/01/04 03:50:56;;;;;;;3.00;2.00;;;8.40;99.90;;;;;;5087673;28;20048;-84
2023/01/04 03:53:23;;;;;;;3.95;2.22;;;8.50;99.90;;;;;;5067603;28;20301;-84
2023/01/04 03:55:51;;;;;;;3.65;2.10;;;8.50;99.90;;;;;;5061883;28;20042;-76
2023/01/04 03:58:19;;;;;;;2.92;2.10;;;8.60;99.90;;;;;;5093891;28;20037;-77
2023/01/04 04:00:45;;;;;;;2.75;2.05;;;8.60;99.90;;;;;;5064410;28;20036;-79
2023/01/04 04:03:11;;;;;;;3.45;2.25;;;8.60;99.90;;;;;;5079931;28;20070;-80
2023/01/04 04:08:27;;;;;;;2.78;1.90;;;8.70;99.90;;;;;;5074606;28;20108;-79
2023/01/04 04:13:49;;;;;;;2.40;1.77;;;8.70;99.90;;;;;;5078671;28;20472;-82
2023/01/04 04:16:16;;;;;;;3.35;2.20;;;8.60;99.90;;;;;;5079818;28;20052;-78
2023/01/04 04:18:42;;;;;;;3.40;2.28;;;8.70;99.90;;;;;;5085700;28;20052;-80
2023/01/04 04:21:07;;;;;;;3.40;2.25;;;8.70;99.90;;;;;;5089883;28;20043;-79
2023/01/04 04:23:33;;;;;;;2.40;1.83;;;8.80;99.90;;;;;;5081163;28;20076;-79
2023/01/04 04:25:59;;;;;;;2.63;1.88;;;8.80;99.90;;;;;;5076418;28;20562;-76
2023/01/04 04:28:25;;;;;;;3.53;1.92;;;8.80;99.90;;;;;;5077524;28;20053;-78
2023/01/04 04:30:51;;;;;;;2.25;1.50;;;8.90;99.90;;;;;;5075107;28;20071;-77
2023/01/04 04:33:17;;;;;;;3.78;2.35;;;8.90;99.90;;;;;;5079143;28;20605;-77
2023/01/04 04:35:43;;;;;;;2.40;1.73;;;8.90;99.90;;;;;;5077320;28;20050;-76
2023/01/04 04:38:08;;;;;;;2.13;1.45;;;9.00;99.90;;;;;;5089333;28;20048;-75
2023/01/04 04:43:21;;;;;;;;;;;9.00;99.90;;;;;;5091125;28;20040;-76
2023/01/04 04:45:46;;;;;;;2.90;1.97;;;9.00;99.90;;;;;;5095664;28;20453;-79
2023/01/04 04:48:12;;;;;;;2.47;1.73;;;9.00;99.90;;;;;;5077925;28;20575;-80
2023/01/04 04:50:37;;;;;;;2.22;1.52;;;9.00;99.90;;;;;;5062901;28;20045;-76
2023/01/04 04:53:03;;;;;;;2.83;2.03;;;9.10;99.90;;;;;;5079847;28;20508;-79
2023/01/04 04:55:29;;;;;;;3.53;1.73;;;9.10;99.90;;;;;;5077774;28;20048;-77
2023/01/04 04:57:55;;;;;;;2.53;1.80;;;9.10;99.90;;;;;;5074069;28;20048;-81
2023/01/04 05:00:20;;;;;;;2.30;1.55;;;9.20;99.90;;;;;;5082178;28;20043;-75
2023/01/04 05:02:46;;;;;;;2.83;1.67;;;9.20;99.90;;;;;;5081111;28;20496;-78
2023/01/04 05:05:12;;;;;;;3.35;2.20;;;9.20;99.90;;;;;;5088116;28;20036;-76
2023/01/04 05:07:38;;;;;;;2.42;1.63;;;9.30;99.90;;;;;;5085461;28;20154;-83
2023/01/04 05:10:04;;;;;;;2.85;2.10;;;9.30;99.90;;;;;;5094911;28;20503;-82
2023/01/04 05:15:14;;;;;;;2.60;2.03;;;9.30;99.90;;;;;;5089759;28;20466;-80
2023/01/04 05:17:39;;;;;;;3.38;2.50;;;9.40;99.90;;;;;;5083536;28;20077;-79
2023/01/04 05:20:05;;;;;;;3.53;2.35;;;9.40;99.90;;;;;;5082942;28;20060;-76
2023/01/04 05:22:31;;;;;;;3.10;2.60;;;9.40;99.90;;;;;;5078352;28;20040;-78
2023/01/04 05:24:57;;;;;;;3.00;2.30;;;9.50;99.90;;;;;;5079706;28;20043;-81
2023/01/04 05:27:23;;;;;;;3.25;2.33;;;9.50;99.90;;;;;;5079221;28;20068;-79
2023/01/04 05:32:33;;;;;;;3.88;2.88;;;9.50;99.90;;;;;;5072974;28;20442;-83
2023/01/04 05:34:58;;;;;;;3.75;2.83;;;9.60;99.90;;;;;;5077539;28;20043;-81
2023/01/04 05:37:24;;;;;;;3.95;2.70;;;9.60;99.90;;;;;;5078341;28;20048;-80
2023/01/04 05:39:50;;;;;;;3.30;2.60;;;9.60;99.90;;;;;;5080440;28;20039;-80
2023/01/04 05:42:25;;;;;;;3.50;2.95;;;9.60;99.90;;;;;;5077790;28;20040;-82
2023/01/04 05:44:52;;;;;;;3.75;3.05;;;9.60;99.90;;;;;;5087120;28;20049;-78
2023/01/04 05:47:17;;;;;;;4.40;3.55;;;9.60;99.90;;;;;;5093109;28;20074;-76
2023/01/04 05:49:43;;;;;;;4.18;3.33;;;9.70;99.90;;;;;;5079516;28;20060;-80
2023/01/04 05:52:09;;;;;;;4.68;3.83;;;9.70;99.90;;;;;;5077863;28;20063;-83
2023/01/04 05:54:35;;;;;;;5.03;3.67;;;9.70;99.90;;;;;;5083145;28;20466;-83
2023/01/04 05:57:01;;;;;;;4.82;3.47;;;9.80;99.90;;;;;;5099598;28;20104;-82
2023/01/04 05:59:26;;;;;;;5.03;3.75;;;9.80;99.90;;;;;;5072810;28;20075;-82
2023/01/04 06:01:52;;;;;;;4.85;3.15;;;9.80;99.90;;;;;;5082232;28;20051;-80
2023/01/04 06:04:19;;;;;;;3.80;3.33;;;9.80;99.90;;;;;;5085305;28;20047;-83
2023/01/04 06:06:45;;;;;;;4.85;3.90;;;9.80;99.90;;;;;;5085487;28;20113;-79
2023/01/04 06:09:10;;;;;;;5.15;3.97;;;9.80;99.90;;;;;;5085668;28;20563;-86
2023/01/04 06:11:36;;;;;;;4.88;3.65;;;9.90;99.90;;;;;;5094631;28;20044;-77
2023/01/04 06:14:02;;;;;;;5.35;3.92;;;9.90;99.90;;;;;;5077220;28;20056;-78
2023/01/04 06:16:28;;;;;;;5.15;3.72;;;9.90;99.90;;;;;;5044545;28;20044;-82
2023/01/04 06:18:53;;;;;;;5.50;4.03;;;10.00;99.90;;;;;;5078659;28;20086;-83
2023/01/04 06:21:19;;;;;;;5.97;4.13;;;10.00;99.90;;;;;;5075524;28;20618;-79
2023/01/04 06:23:45;;;;;;;5.13;4.20;;;10.00;99.90;;;;;;5061171;28;20075;-78
2023/01/04 06:26:11;;;;;;;5.47;3.63;;;10.00;99.90;;;;;;5082165;28;20151;-81
2023/01/04 06:28:36;;;;;;;4.43;3.63;;;10.00;99.90;;;;;;5079465;28;20036;-83
2023/01/04 06:31:06;;;;;;;4.20;3.28;;;10.00;99.90;;;;;;5077149;28;20048;-82
2023/01/04 06:33:32;;;;;;;4.03;3.22;;;10.00;99.90;;;;;;5084676;28;20131;-77
2023/01/04 06:35:59;;;;;;;4.40;3.45;;;10.00;99.90;;;;;;5084774;28;20040;-83
2023/01/04 06:38:24;;;;;;;3.92;2.92;;;10.10;99.90;;;;;;5095674;28;20189;-79
2023/01/04 06:40:50;;;;;;;4.10;3.45;;;10.10;99.90;;;;;;5078920;28;20404;-75
2023/01/04 06:43:16;;;;;;;3.45;2.63;;;10.10;99.90;;;;;;5075321;28;20045;-77
2023/01/04 06:45:41;;;;;;;4.35;3.40;;;10.10;99.90;;;;;;5085417;28;20041;-79
2023/01/04 06:48:07;;;;;;;4.35;2.60;;;10.20;99.90;;;;;;5091878;28;20135;-78
2023/01/04 06:50:33;;;;;;;6.43;3.53;;;10.20;99.90;;;;;;5071169;28;20116;-81
2023/01/04 06:52:59;;;;;;;4.93;2.50;;;10.10;99.90;;;;;;5059617;28;20106;-79
2023/01/04 06:55:25;;;;;;;3.25;2.72;;;10.10;99.90;;;;;;5076286;28;20056;-82
2023/01/04 06:57:51;;;;;;;3.17;2.25;;;10.10;99.90;;;;;;5079315;28;20451;-77
2023/01/04 07:00:17;;;;;;;3.10;2.20;;;10.10;99.90;;;;;;5097539;28;20070;-78
2023/01/04 07:02:46;;;;;;;3.67;2.33;;;10.10;99.90;;;;;;5090561;28;20044;-81
2023/01/04 07:05:11;;;;;;;3.47;2.22;;;10.10;99.90;;;;;;5090210;28;20083;-79
2023/01/04 07:07:37;;;;;;;3.45;2.08;;;10.10;99.90;;;;;;5086936;28;20052;-80
2023/01/04 07:10:03;;;;;;;2.85;1.98;;;10.10;99.90;;;;;;5064820;28;20048;-80
2023/01/04 07:12:29;;;;;;;3.72;2.20;;;10.10;99.90;;;;;;5094822;28;20052;-76
2023/01/04 07:14:55;;;;;;;2.95;1.98;;;10.10;99.90;;;;;;5092821;28;20098;-83
2023/01/04 07:17:20;;;;;;;3.53;2.05;;;10.10;99.90;;;;;;5074488;28;20056;-79
2023/01/04 07:19:46;;;;;;;2.95;2.10;;;10.10;99.90;;;;;;5100551;28;20043;-78
2023/01/04 07:22:12;;;;;;;3.53;1.70;;;10.20;99.90;;;;;;5079954;28;20104;-86
2023/01/04 07:24:37;;;;;;;3.40;1.88;;;10.20;99.90;;;;;;5101349;28;20047;-85
2023/01/04 07:27:03;;;;;;;2.47;1.52;;;10.20;99.90;;;;;;5081333;28;20044;-81
2023/01/04 07:29:29;;;;;;;2.50;1.92;;;10.20;99.90;;;;;;5080107;28;20048;-78
2023/01/04 07:31:55;;;;;;;2.50;1.52;;;10.20;99.90;;;;;;5091911;28;20052;-79
2023/01/04 07:34:23;;;;;;;3.40;1.80;;;10.20;99.90;;;;;;5079133;28;20117;-83
2023/01/04 07:36:49;;;;;;;2.05;1.50;;;10.20;99.90;;;;;;5080863;28;20064;-80
2023/01/04 07:39:16;;;;;;;3.03;1.95;;;10.30;99.90;;;;;;5080528;28;20052;-86
2023/01/04 07:41:42;;;;;;;3.15;1.80;;;10.30;99.90;;;;;;5080541;28;20079;-86
2023/01/04 07:44:09;;;;;;;2.55;1.70;;;10.30;99.90;;;;;;5088902;28;20110;-79
2023/01/04 07:46:35;;;;;;;3.08;1.65;;;10.30;99.90;;;;;;5082724;28;20055;-77
2023/01/04 07:49:01;;;;;;;3.38;1.70;;;10.30;99.90;;;;;;5094235;28;20044;-82
2023/01/04 07:51:28;;;;;;;2.70;1.70;;;10.30;99.90;;;;;;5082080;28;20064;-81
2023/01/04 07:53:54;;;;;;;3.70;1.30;;;10.30;99.90;;;;;;5081195;28;20699;-80
2023/01/04 07:56:20;;;;;;;2.10;1.50;;;10.30;99.90;;;;;;5089862;28;20078;-77
2023/01/04 07:58:45;;;;;;;2.55;1.95;;;10.30;99.90;;;;;;5088898;28;20485;-79
2023/01/04 08:01:17;;;;;;;2.70;1.88;;;10.30;99.90;;;;;;5065550;28;20047;-85
2023/01/04 08:03:45;;;;;;;2.35;1.75;;;10.30;99.90;;;;;;5095249;28;20039;-88
2023/01/04 08:06:12;;;;;;;2.95;1.75;;;10.40;99.90;;;;;;5091239;28;20048;-82
2023/01/04 08:08:38;;;;;;;2.30;1.33;;;10.40;99.90;;;;;;5076924;28;20890;-79
2023/01/04 08:11:07;;;;;;;2.75;1.95;;;10.40;99.90;;;;;;5081864;28;20041;-86
2023/01/04 08:13:33;;;;;;;2.10;1.55;;;10.30;99.90;;;;;;5061656;28;20060;-78
2023/01/04 08:15:59;;;;;;;2.97;2.20;;;10.40;99.90;;;;;;5075000;28;20061;-85
2023/01/04 08:18:25;;;;;;;2.80;2.00;;;10.40;99.90;;;;;;5091536;28;20112;-83
2023/01/04 08:21:01;;;;;;;3.65;2.20;;;10.30;99.90;;;;;;5093031;28;20048;-78
2023/01/04 08:23:27;;;;;;;3.13;2.00;;;10.40;99.90;;;;;;5060962;28;20048;-80
2023/01/04 08:25:53;;;;;;;2.80;1.90;;;10.30;99.90;;;;;;5037134;28;20064;-84
2023/01/04 08:28:18;;;;;;;2.90;2.05;;;10.40;99.90;;;;;;5075901;28;20049;-83
2023/01/04 08:30:44;;;;;;;3.10;2.10;;;10.40;99.90;;;;;;5057237;28;20071;-85
2023/01/04 08:33:15;;;;;;;3.20;2.15;;;10.40;99.90;;;;;;5053738;28;20052;-80
2023/01/04 08:35:41;;;;;;;3.47;2.58;;;10.50;99.90;;;;;;5078528;28;20060;-85
2023/01/04 08:38:06;;;;;;;3.60;2.30;;;10.50;99.90;;;;;;5046908;28;20068;-84
2023/01/04 08:40:32;;;;;;;3.60;2.70;;;10.50;99.90;;;;;;5085521;28;20044;-86
2023/01/04 08:42:58;;;;;;;3.45;2.40;;;10.50;99.90;;;;;;5078799;28;20040;-78
2023/01/04 08:45:24;;;;;;;3.03;2.13;;;10.50;99.90;;;;;;5061516;28;20292;-80
2023/01/04 08:47:49;;;;;;;4.28;3.10;;;10.60;99.90;;;;;;5057016;28;20103;-78
2023/01/04 08:50:17;;;;;;;4.40;3.05;;;10.60;99.90;;;;;;5073025;28;20036;-79
2023/01/04 08:52:43;;;;;;;4.25;2.70;;;10.60;99.90;;;;;;5056055;28;20045;-84
2023/01/04 08:55:09;;;;;;;4.25;2.88;;;10.60;99.90;;;;;;5078679;28;20411;-76
2023/01/04 08:57:35;;;;;;;4.75;3.10;;;10.60;99.90;;;;;;5078956;28;20404;-79
2023/01/04 09:00:00;;;;;;;5.00;2.88;;;10.60;99.90;;;;;;5058438;28;20230;-81
2023/01/04 09:02:27;;;;;;;3.83;2.50;;;10.60;99.90;;;;;;5059088;28;20076;-78
2023/01/04 09:04:58;;;;;;;3.88;2.63;;;10.70;99.90;;;;;;5064830;28;20044;-81
2023/01/04 09:07:28;;;;;;;5.43;2.60;;;10.70;99.90;;;;;;5073451;28;20059;-80
2023/01/04 09:09:54;;;;;;;5.13;3.10;;;10.70;99.90;;;;;;5075323;28;20072;-84
2023/01/04 09:12:20;;;;;;;5.18;2.97;;;10.70;99.90;;;;;;5041718;28;20049;-80
2023/01/04 09:14:46;;;;;;;5.57;3.45;;;10.70;99.90;;;;;;5077242;28;20507;-84
2023/01/04 09:17:11;;;;;;;4.95;2.85;;;10.70;99.90;;;;;;5067465;28;20116;-76
2023/01/04 09:19:37;;;;;;;3.30;2.42;;;10.70;99.90;;;;;;5092645;28;20043;-84
2023/01/04 09:22:03;;;;;;;3.95;2.60;;;10.70;99.90;;;;;;5061047;28;20056;-82
2023/01/04 09:24:32;;;;;;;3.97;2.50;;;10.70;99.90;;;;;;5070945;28;20108;-80
2023/01/04 09:26:58;;;;;;;4.07;2.70;;;10.70;99.90;;;;;;5074445;28;20071;-82
2023/01/04 09:29:26;;;;;;;4.32;2.65;;;10.70;99.90;;;;;;5058610;28;20127;-83
2023/01/04 09:31:53;;;;;;;3.65;2.25;;;10.70;99.90;;;;;;5071611;28;20040;-82
2023/01/04 09:34:19;;;;;;;3.42;2.70;;;10.70;99.90;;;;;;5085430;28;20080;-83
2023/01/04 09:36:46;;;;;;;3.85;2.50;;;10.80;99.90;;;;;;5071403;28;20043;-82
2023/01/04 09:39:12;;;;;;;3.17;2.30;;;10.70;99.90;;;;;;5085751;28;20045;-81
2023/01/04 09:41:45;;;;;;;4.05;2.10;;;10.80;99.90;;;;;;5059817;28;20044;-82
2023/01/04 09:44:30;;;;;;;3.30;2.17;;;10.80;99.90;;;;;;5055375;28;20052;-82
2023/01/04 09:47:06;;;;;;;3.47;2.20;;;10.70;99.90;;;;;;5092122;28;20048;-87
2023/01/04 09:49:59;;;;;;;4.05;2.30;;;10.70;99.90;;;;;;5076867;28;20045;-84
2023/01/04 09:52:39;;;;;;;3.17;2.00;;;10.70;99.90;;;;;;5061497;28;20055;-84
2023/01/04 09:55:24;;;;;;;3.70;2.17;;;10.80;99.90;;;;;;5041924;28;20048;-84
2023/01/04 09:57:58;;;;;;;3.13;2.05;;;10.80;99.90;;;;;;5060010;28;20055;-86
2023/01/04 10:00:34;;;;;;;2.55;1.90;;;10.80;99.90;;;;;;5057245;28;20491;-79
2023/01/04 10:03:05;;;;;;;3.30;1.95;;;10.80;99.90;;;;;;5088243;28;20045;-88
2023/01/04 10:05:33;;;;;;;2.75;1.85;;;10.90;99.90;;;;;;5056676;28;20055;-84
2023/01/04 10:08:00;;;;;;;2.70;1.73;;;10.90;99.90;;;;;;5086091;28;20043;-86
2023/01/04 10:10:56;;;;;;;2.35;1.70;;;10.90;99.90;;;;;;5060405;28;20051;-86
2023/01/04 10:13:43;;;;;;;2.90;1.42;;;10.90;99.90;;;;;;5073120;28;20496;-77
2023/01/04 10:16:34;;;;;;;2.78;1.58;;;10.90;99.90;;;;;;5074983;28;20040;-82
2023/01/04 10:19:39;;;;;;;2.20;1.40;;;10.90;99.90;;;;;;5044389;28;20049;-78
2023/01/04 10:22:23;;;;;;;2.22;1.17;;;11.00;99.90;;;;;;5093874;28;20052;-82
2023/01/04 10:25:04;;;;;;;1.85;1.20;;;10.90;99.90;;;;;;5058193;28;20040;-85
2023/01/04 10:27:36;;;;;;;1.55;0.95;;;11.00;99.90;;;;;;5067382;28;20059;-80
2023/01/04 10:30:43;;;;;;;2.22;0.88;;;10.90;99.90;;;;;;5079259;28;20057;-83
2023/01/04 10:33:23;;;;;;;1.75;1.00;;;11.00;99.90;;;;;;5082453;28;20061;-85
2023/01/04 10:35:49;;;;;;;1.92;0.90;;;11.00;99.90;;;;;;5047526;28;20108;-86
2023/01/04 10:38:19;;;;;;;1.73;0.95;;;11.00;99.90;;;;;;5064971;28;20049;-86
2023/01/04 10:40:47;;;;;;;1.70;1.08;;;11.00;99.90;;;;;;5086188;28;20094;-82
2023/01/04 10:43:44;;;;;;;1.73;0.98;;;11.00;99.90;;;;;;5076368;28;20041;-83
2023/01/04 10:46:46;;;;;;;1.33;0.90;;;11.00;99.90;;;;;;5100874;28;20057;-83
2023/01/04 10:49:55;;;;;;;1.80;1.00;;;11.10;99.90;;;;;;5038047;28;20116;-82
2023/01/04 10:52:50;;;;;;;2.50;1.10;;;11.10;99.90;;;;;;5057747;28;20056;-86
2023/01/04 10:55:20;;;;;;;2.33;1.02;;;11.10;99.90;;;;;;5077753;28;20072;-80
2023/01/04 10:58:17;;;;;;;2.20;1.05;;;11.10;99.90;;;;;;5073111;28;20041;-85
2023/01/04 11:00:49;;;;;;;2.85;1.38;;;11.10;99.90;;;;;;5062445;28;20053;-79
2023/01/04 11:03:30;;;;;;;3.10;1.30;;;11.20;99.90;;;;;;5082328;28;20037;-86
2023/01/04 11:06:21;;;;;;;2.83;1.65;;;11.20;99.90;;;;;;5062154;28;20059;-80
2023/01/04 11:09:10;;;;;;;4.95;1.90;;;11.20;99.90;;;;;;5041399;28;20060;-83
2023/01/04 11:11:42;;;;;;;3.45;1.70;;;11.20;99.90;;;;;;5076568;28;20045;-85
2023/01/04 11:14:09;;;;;;;3.67;1.88;;;11.20;99.90;;;;;;5060849;28;20396;-79
2023/01/04 11:16:36;;;;;;;3.17;1.75;;;11.20;99.90;;;;;;5061193;28;20054;-84
2023/01/04 11:19:04;;;;;;;4.47;2.30;;;11.20;99.90;;;;;;5069883;28;20087;-86
2023/01/04 11:21:38;;;;;;;4.32;2.40;;;11.20;99.90;;;;;;5073907;28;20061;-85
2023/01/04 11:24:06;;;;;;;6.15;2.40;;;11.20;99.90;;;;;;5076424;28;20098;-80
2023/01/04 11:26:40;;;;;;;2.92;1.88;;;11.20;99.90;;;;;;5067782;28;20044;-85
2023/01/04 11:29:25;;;;;;;3.88;2.13;;;11.30;99.90;;;;;;5056923;28;20052;-85
2023/01/04 11:32:00;;;;;;;4.45;2.30;;;11.30;99.90;;;;;;5057686;28;20107;-83
2023/01/04 11:34:47;;;;;;;3.00;2.20;;;11.30;99.90;;;;;;5068262;28;20045;-84
2023/01/04 11:37:32;;;;;;;3.83;1.95;;;11.30;99.90;;;;;;5056774;28;20059;-78
2023/01/04 11:40:17;;;;;;;4.53;2.28;;;11.40;99.90;;;;;;5089679;28;20080;-80
2023/01/04 11:43:08;;;;;;;3.92;2.15;;;11.40;99.90;;;;;;5065574;28;20049;-86
2023/01/04 11:45:34;;;;;;;6.10;2.80;;;11.40;99.90;;;;;;5061169;28;20057;-80
2023/01/04 11:47:59;;;;;;;6.20;2.88;;;11.40;99.90;;;;;;5045372;28;20091;-83
2023/01/04 11:50:45;;;;;;;5.72;2.67;;;11.40;99.90;;;;;;5064320;28;20045;-80
2023/01/04 11:53:21;;;;;;;5.97;2.42;;;11.50;99.90;;;;;;5063622;28;20072;-79
2023/01/04 11:55:47;;;;;;;4.85;2.20;;;11.50;99.90;;;;;;5062454;28;20058;-81
2023/01/04 11:58:15;;;;;;;3.75;2.10;;;11.50;99.90;;;;;;5064936;28;20059;-90
2023/01/04 12:00:53;;;;;;;5.90;1.95;;;11.50;99.90;;;;;;5062488;28;20143;-83
2023/01/04 12:03:36;;;;;;;4.47;2.10;;;11.50;99.90;;;;;;5064130;28;20052;-81
2023/01/04 12:06:02;;;;;;;7.00;2.17;;;11.60;99.90;;;;;;5080191;28;20115;-83
2023/01/04 12:08:34;;;;;;;3.70;1.77;;;11.50;99.90;;;;;;5062207;28;20083;-82
2023/01/04 12:11:02;;;;;;;6.03;2.13;;;11.50;99.90;;;;;;5080617;28;20052;-78
2023/01/04 12:13:28;;;;;;;3.35;2.10;;;11.50;99.90;;;;;;5060678;28;20991;-80
2023/01/04 12:16:02;;;;;;;6.75;2.58;;;11.60;99.90;;;;;;5064090;28;20104;-83
2023/01/04 12:18:33;;;;;;;4.82;2.20;;;11.60;99.90;;;;;;5061715;28;20056;-86
2023/01/04 12:21:01;;;;;;;7.18;2.78;;;11.60;99.90;;;;;;5079778;28;20553;-89
2023/01/04 12:23:27;;;;;;;4.38;2.20;;;11.60;99.90;;;;;;5063199;28;20361;-82
2023/01/04 12:25:53;;;;;;;5.43;2.85;;;11.60;99.90;;;;;;5060853;28;20086;-82
2023/01/04 12:28:30;;;;;;;3.97;2.38;;;11.70;99.90;;;;;;5080751;28;20103;-86
2023/01/04 12:31:18;;;;;;;3.53;2.13;;;11.70;99.90;;;;;;5069375;28;20055;-89
2023/01/04 12:34:16;;;;;;;4.07;1.80;;;11.70;99.90;;;;;;5063529;28;20049;-81
2023/01/04 12:36:58;;;;;;;2.60;1.60;;;11.70;99.90;;;;;;5051325;28;20050;-83
2023/01/04 12:39:28;;;;;;;4.80;1.35;;;11.70;99.90;;;;;;5077725;28;20059;-79
2023/01/04 12:41:59;;;;;;;4.30;1.50;;;11.70;99.90;;;;;;5070040;28;20053;-82
2023/01/04 12:44:46;;;;;;;3.00;1.38;;;11.60;99.90;;;;;;5090428;28;20124;-81
2023/01/04 12:50:07;;;;;;;2.08;0.98;;;11.70;99.90;;;;;;5080224;28;20112;-81
2023/01/04 12:52:34;;;;;;;2.65;1.13;;;11.70;99.90;;;;;;5061326;28;20052;-79
2023/01/04 12:55:04;;;;;;;2.10;0.80;;;11.70;99.90;;;;;;5045732;28;20057;-82
2023/01/04 12:57:34;;;;;;;2.85;1.85;;;11.80;99.90;;;;;;5079904;28;20056;-83
2023/01/04 13:00:11;;;;;;;3.03;0.90;;;11.80;99.90;;;;;;5061344;28;20442;-83
2023/01/04 13:02:46;;;;;;;2.25;0.88;;;11.90;99.90;;;;;;5062677;28;20104;-81
2023/01/04 13:05:18;;;;;;;2.15;0.82;;;11.90;99.90;;;;;;5077461;28;20048;-78
2023/01/04 13:07:58;;;;;;;1.65;0.70;;;11.90;99.90;;;;;;5079452;28;20060;-84
2023/01/04 13:10:42;;;;;;;2.45;1.15;;;11.90;99.90;;;;;;5078617;28;20423;-82
2023/01/04 13:13:18;;;;;;;2.17;0.80;;;11.90;99.90;;;;;;5076977;28;20060;-82
2023/01/04 13:15:56;;;;;;;2.53;1.00;;;11.90;99.90;;;;;;5059706;28;20123;-84
2023/01/04 13:18:24;;;;;;;2.13;0.90;;;11.80;99.90;;;;;;5072785;28;20053;-81
2023/01/04 13:20:50;;;;;;;2.38;1.00;;;11.90;99.90;;;;;;5058333;28;20048;-83
2023/01/04 13:23:16;;;;;;;3.28;1.13;;;11.90;99.90;;;;;;5070833;28;20100;-83
2023/01/04 13:25:42;;;;;;;7.07;1.77;;;11.90;99.90;;;;;;5076869;28;20059;-77
2023/01/04 13:28:16;;;;;;;3.63;1.35;;;11.90;99.90;;;;;;5062037;28;20040;-81
2023/01/04 13:30:42;;;;;;;2.42;0.90;;;11.90;99.90;;;;;;5076600;28;20053;-82
2023/01/04 13:33:14;;;;;;;5.25;1.63;;;11.90;99.90;;;;;;5045367;28;20048;-82
2023/01/04 13:35:39;;;;;;;5.88;1.70;;;12.00;99.90;;;;;;5060690;28;20044;-85
2023/01/04 13:38:15;;;;;;;4.72;1.38;;;12.10;99.90;;;;;;5061210;28;20549;-83
2023/01/04 13:40:45;;;;;;;5.40;1.60;;;12.00;99.90;;;;;;5078188;28;20086;-83
2023/01/04 13:43:14;;;;;;;4.97;1.70;;;12.00;99.90;;;;;;5076874;28;20040;-84
2023/01/04 13:45:46;;;;;;;4.88;1.52;;;12.00;99.90;;;;;;5078414;28;20072;-82
2023/01/04 13:48:16;;;;;;;6.05;1.83;;;12.00;99.90;;;;;;5074822;28;20060;-81
2023/01/04 13:50:47;;;;;;;5.82;1.80;;;12.00;99.90;;;;;;5076391;28;20052;-79
2023/01/04 13:53:21;;;;;;;6.03;1.70;;;12.00;99.90;;;;;;5060996;28;20052;-81
2023/01/04 13:55:55;;;;;;;5.18;1.25;;;12.10;99.90;;;;;;5075796;28;20053;-80
2023/01/04 13:58:24;;;;;;;6.28;1.90;;;12.10;99.90;;;;;;5061514;28;20688;-84
2023/01/04 14:00:55;;;;;;;4.47;1.45;;;12.10;99.90;;;;;;5075584;28;20080;-78
2023/01/04 14:03:43;;;;;;;8.95;1.85;;;12.10;99.90;;;;;;5077824;28;20059;-82
2023/01/04 14:06:09;;;;;;;7.10;1.95;;;12.00;99.90;;;;;;5076722;28;20454;-82